Data for 04/25/2017

Time Sea-Level Adjusted Pressure Absolute Pressure Temperature Relative Humidity Dew Point   
(mb) (inHg) (mb) (inHg) (C) (F) (%) (C) (F)
00:05 1007 29.74 836 24.69 4.5 40.1 82 1.7 35
00:10 1007 29.74 836 24.69 4.5 40 82 1.7 35
00:15 1007 29.74 836 24.69 4.3 39.8 83 1.7 35
00:20 1007 29.74 836 24.69 4.2 39.5 83 1.5 34.6
00:25 1007 29.74 836 24.69 4.2 39.5 83 1.5 34.8
00:30 1007 29.74 836 24.69 4 39.2 84 1.6 34.8
00:35 1007 29.74 836 24.69 3.9 39 84 1.4 34.5
00:40 1007 29.74 836 24.69 3.9 39.1 82 1.1 34.1
00:45 1007 29.74 836 24.69 3.9 39 82 1.2 34.1
00:50 1007 29.74 836 24.69 3.8 38.9 84 1.3 34.4
00:55 1007 29.74 836 24.69 3.7 38.7 84 1.2 34.2
01:00 1007 29.74 836 24.69 3.7 38.6 84 1.2 34.1
01:05 1007 29.74 836 24.69 3.6 38.5 84 1.2 34.2
01:10 1007 29.74 836 24.69 3.6 38.4 84 1.1 34
01:15 1007 29.74 836 24.69 3.6 38.4 84 1.1 34
01:20 1007 29.74 836 24.69 3.5 38.3 84 1.1 33.9
01:25 1007 29.74 836 24.69 3.5 38.3 84 1 33.9
01:30 1007 29.74 836 24.69 3.5 38.4 84 1 33.9
01:35 1007 29.74 836 24.69 3.6 38.4 84 1.1 34
01:40 1007 29.74 836 24.69 3.6 38.4 85 1.2 34.1
01:45 1007 29.74 837 24.72 3.6 38.5 85 1.3 34.4
01:50 1007 29.74 837 24.72 3.6 38.5 85 1.3 34.4
01:55 1007 29.74 837 24.72 3.6 38.5 85 1.3 34.3
02:00 1007 29.74 837 24.72 3.7 38.6 85 1.4 34.5
02:05 1008 29.77 837 24.72 3.7 38.6 86 1.5 34.8
02:10 1008 29.77 837 24.72 3.5 38.3 87 1.5 34.7
02:15 1008 29.77 837 24.72 3.4 38.1 87 1.4 34.6
02:20 1008 29.77 837 24.72 3.3 38 87 1.4 34.6
02:25 1008 29.77 837 24.72 3.3 37.9 87 1.3 34.4
02:30 1008 29.77 837 24.72 3.2 37.8 87 1.3 34.4
02:35 1008 29.77 837 24.72 3.1 37.5 88 1.2 34.2
02:40 1008 29.77 837 24.72 3 37.4 89 1.3 34.3
02:45 1008 29.77 837 24.72 3 37.3 89 1.3 34.3
02:50 1008 29.77 837 24.72 2.8 37.1 88 1.1 34
02:55 1008 29.77 837 24.72 2.8 37 88 0.9 33.7
03:00 1008 29.77 837 24.72 2.6 36.7 88 0.8 33.5
03:05 1008 29.77 837 24.72 2.5 36.4 89 0.8 33.5
03:10 1008 29.77 837 24.72 2.4 36.3 90 0.8 33.5
03:15 1008 29.77 837 24.72 2.3 36.2 89 0.7 33.3
03:20 1008 29.77 837 24.72 2.5 36.5 89 0.8 33.5
03:25 1008 29.77 837 24.72 2.5 36.6 90 1.1 33.9
03:30 1008 29.77 837 24.72 2.6 36.8 90 1.2 34.2
03:35 1008 29.77 837 24.72 2.6 36.8 90 1.2 34.1
03:40 1008 29.77 837 24.72 2.4 36.4 90 1 33.7
03:45 1008 29.77 837 24.72 2.1 35.7 91 0.7 33.3
03:50 1008 29.77 837 24.72 1.9 35.4 91 0.6 33
03:55 1008 29.77 837 24.72 1.9 35.4 91 0.6 33
04:00 1008 29.77 837 24.72 1.6 34.9 90 0.2 32.3
04:05 1008 29.77 838 24.75 1.3 34.4 90 -0.1 31.8
04:10 1008 29.77 838 24.75 1.1 34 91 -0.3 31.5
04:15 1009 29.8 838 24.75 0.8 33.5 91 -0.5 31.2
04:20 1009 29.8 838 24.75 0.7 33.2 92 -0.6 31
04:25 1009 29.8 838 24.75 0.5 32.9 92 -0.7 30.8
04:30 1009 29.8 838 24.75 0.4 32.8 92 -0.7 30.8
04:35 1009 29.8 838 24.75 0.4 32.7 93 -0.7 30.8
04:40 1009 29.8 838 24.75 0.3 32.6 93 -0.7 30.7
04:45 1009 29.8 838 24.75 0.3 32.6 93 -0.6 30.8
04:50 1009 29.8 838 24.75 0.4 32.7 93 -0.6 31
04:55 1009 29.8 838 24.75 0.3 32.5 93 -0.7 30.8
05:00 1009 29.8 838 24.75 0.2 32.4 93 -0.7 30.7
05:05 1009 29.8 838 24.75 0.3 32.5 94 -0.7 30.8
05:10 1009 29.8 838 24.75 0.3 32.6 94 -0.6 31
05:15 1009 29.8 838 24.75 0.6 33.1 94 -0.3 31.5
05:20 1009 29.8 838 24.75 0.7 33.3 93 -0.2 31.6
05:25 1009 29.8 838 24.75 0.8 33.5 93 -0.1 31.8
05:30 1009 29.8 838 24.75 0.9 33.7 93 -0.1 31.9
05:35 1009 29.8 838 24.75 1 33.7 93 -0.1 31.8
05:40 1009 29.8 838 24.75 0.9 33.7 92 -0.2 31.7
05:45 1009 29.8 838 24.75 1 33.9 92 -0.1 31.8
05:50 1009 29.8 839 24.78 1.2 34.2 92 -0 32
05:55 1009 29.8 839 24.78 1.2 34.2 91 -0.2 31.7
06:00 1009 29.8 839 24.78 1 33.9 91 -0.2 31.6
06:05 1009 29.8 839 24.78 0.9 33.6 92 -0.3 31.4
06:10 1010 29.83 839 24.78 0.9 33.6 92 -0.2 31.6
06:15 1010 29.83 839 24.78 1 33.9 92 -0.1 31.8
06:20 1010 29.83 839 24.78 1 33.8 92 -0.1 31.7
06:25 1010 29.83 839 24.78 1.1 33.9 92 -0.1 31.8
06:30 1010 29.83 839 24.78 1.1 34 92 -0.1 31.9
06:35 1010 29.83 839 24.78 1.1 34.1 92 -0 32
06:40 1010 29.83 839 24.78 1.2 34.2 92 0.1 32.1
06:45 1010 29.83 839 24.78 1.3 34.3 92 0.1 32.2
06:50 1010 29.83 839 24.78 1.4 34.6 92 0.3 32.5
06:55 1010 29.83 839 24.78 1.5 34.7 92 0.3 32.5
07:00 1010 29.83 839 24.78 1.6 34.8 91 0.3 32.5
07:05 1010 29.83 839 24.78 1.6 34.9 91 0.3 32.5
07:10 1010 29.83 839 24.78 1.6 34.9 91 0.3 32.5
07:15 1010 29.83 840 24.81 1.6 34.9 90 0.2 32.3
07:20 1010 29.83 840 24.81 1.7 35.1 90 0.3 32.5
07:25 1010 29.83 840 24.81 1.8 35.2 90 0.3 32.6
07:30 1011 29.85 840 24.81 1.8 35.2 89 0.2 32.3
07:35 1011 29.85 840 24.81 1.8 35.2 89 0.2 32.3
07:40 1011 29.85 840 24.81 1.9 35.4 90 0.4 32.7
07:45 1011 29.85 840 24.81 2 35.7 89 0.4 32.8
07:50 1011 29.85 840 24.81 2.1 35.8 88 0.3 32.6
07:55 1011 29.85 840 24.81 2.1 35.7 88 0.2 32.4
08:00 1011 29.85 840 24.81 2.1 35.8 87 0.1 32.2
08:05 1011 29.85 840 24.81 2.2 35.9 88 0.3 32.6
08:10 1011 29.85 840 24.81 2.4 36.2 87 0.3 32.6
08:15 1011 29.85 840 24.81 2.4 36.3 86 0.3 32.5
08:20 1011 29.85 840 24.81 2.4 36.3 86 0.3 32.6
08:25 1011 29.85 840 24.81 2.5 36.5 85 0.3 32.5
08:30 1011 29.85 840 24.81 2.6 36.8 85 0.4 32.8
08:35 1011 29.85 840 24.81 2.9 37.2 86 0.8 33.4
08:40 1011 29.85 841 24.83 3.1 37.6 85 0.8 33.4
08:45 1011 29.85 841 24.83 3.1 37.6 83 0.5 32.9
08:50 1011 29.85 841 24.83 3.1 37.7 83 0.5 32.9
08:55 1011 29.85 841 24.83 3.3 37.9 82 0.5 32.9
09:00 1011 29.85 841 24.83 3.5 38.3 80 0.4 32.7
09:05 1011 29.85 841 24.83 3.4 38.1 82 0.6 33
09:10 1011 29.85 841 24.83 3.8 38.9 84 1.3 34.3
09:15 1012 29.88 841 24.83 4.4 39.9 80 1.2 34.1
09:20 1012 29.88 841 24.83 4.6 40.2 81 1.5 34.8
09:25 1012 29.88 841 24.83 4.7 40.5 81 1.7 35
09:30 1012 29.88 841 24.83 4.8 40.7 77 1.2 34.1
09:35 1012 29.88 841 24.83 5.1 41.3 80 1.9 35.4
09:40 1012 29.88 841 24.83 5.8 42.4 77 2.1 35.8
09:45 1012 29.88 841 24.83 5.8 42.5 75 1.7 35.1
09:50 1012 29.88 841 24.83 5.4 41.7 79 2.1 35.7
09:55 1012 29.88 841 24.83 5.2 41.4 80 2 35.7
10:00 1012 29.88 841 24.83 5 41 80 1.9 35.4
10:05 1012 29.88 841 24.83 4.8 40.6 82 1.9 35.5
10:10 1012 29.88 841 24.83 4.9 40.8 79 1.6 34.9
10:15 1012 29.88 841 24.83 5.2 41.4 78 1.7 35.1
10:20 1012 29.88 841 24.83 5.4 41.7 79 2 35.6
10:25 1012 29.88 841 24.83 5.3 41.5 78 1.7 35.1
10:30 1012 29.88 841 24.83 5.1 41.2 78 1.6 34.8
10:35 1012 29.88 841 24.83 5.2 41.3 76 1.4 34.4
10:40 1012 29.88 841 24.83 5.3 41.6 77 1.6 34.8
10:45 1012 29.88 841 24.83 5.4 41.7 79 2 35.5
10:50 1012 29.88 841 24.83 5.6 42 79 2.2 36
10:55 1012 29.88 841 24.83 6 42.8 72 1.4 34.5
11:00 1012 29.88 841 24.83 6.3 43.3 69 1 33.9
11:05 1012 29.88 841 24.83 6.1 42.9 71 1.3 34.3
11:10 1012 29.88 841 24.83 6.2 43.1 70 1.1 34
11:15 1012 29.88 841 24.83 6.3 43.3 71 1.3 34.4
11:20 1012 29.88 841 24.83 5.2 41.3 77 1.5 34.7
11:25 1012 29.88 841 24.83 4.6 40.3 80 1.4 34.6
11:30 1012 29.88 841 24.83 4.1 39.4 83 1.5 34.7
11:35 1012 29.88 841 24.83 4.2 39.5 81 1.2 34.1
11:40 1012 29.88 841 24.83 4.6 40.3 79 1.3 34.4
11:45 1012 29.88 841 24.83 4.6 40.3 78 1.2 34.1
11:50 1012 29.88 841 24.83 5 41 75 0.9 33.6
11:55 1012 29.88 841 24.83 5.1 41.3 76 1.3 34.3
12:00 1012 29.88 841 24.83 5.7 42.3 73 1.4 34.4
12:05 1012 29.88 841 24.83 6.5 43.6 67 0.8 33.5
12:10 1012 29.88 841 24.83 6.9 44.4 65 0.8 33.5
12:15 1012 29.88 841 24.83 7.2 44.9 65 1 33.8
12:20 1012 29.88 841 24.83 7.8 46 64 1.3 34.4
12:25 1012 29.88 841 24.83 7.3 45.1 65 1.1 33.9
12:30 1012 29.88 841 24.83 7 44.7 65 0.9 33.6
12:35 1012 29.88 841 24.83 8.6 47.4 57 0.7 33.2
12:40 1012 29.88 841 24.83 8.5 47.3 55 0.1 32.1
12:45 1012 29.88 841 24.83 9.6 49.2 51 -0.1 31.9
12:50 1012 29.88 841 24.83 9.4 49 59 1.8 35.2
12:55 1011 29.85 841 24.83 7.7 45.8 64 1.4 34.5
13:00 1012 29.88 841 24.83 7.5 45.4 64 1 33.9
13:05 1012 29.88 841 24.83 7.1 44.7 68 1.6 34.8
13:10 1012 29.88 841 24.83 6.7 44 64 0.4 32.7
13:15 1012 29.88 841 24.83 7.3 45.2 61 0.4 32.7
13:20 1012 29.88 841 24.83 8.5 47.3 52 -0.8 30.6
13:25 1012 29.88 841 24.83 9.3 48.8 52 -0 32
13:30 1012 29.88 841 24.83 9.5 49 52 0.2 32.4
13:35 1012 29.88 841 24.83 8.9 48.1 52 -0.4 31.3
13:40 1012 29.88 841 24.83 9 48.1 53 -0 32
13:45 1012 29.88 841 24.83 9.1 48.3 55 0.5 32.9
13:50 1012 29.88 841 24.83 9 48.1 54 0.1 32.1
13:55 1012 29.88 841 24.83 9.9 49.7 53 0.8 33.5
14:00 1012 29.88 841 24.83 8.7 47.7 61 1.7 35.1
14:05 1012 29.88 841 24.83 8.5 47.3 65 2.4 36.3
14:10 1012 29.88 841 24.83 7.9 46.2 67 2.1 35.8
14:15 1012 29.88 841 24.83 6.9 44.4 74 2.7 36.8
14:20 1012 29.88 841 24.83 7.2 44.9 71 2.3 36.2
14:25 1012 29.88 841 24.83 7.2 45 69 2 35.6
14:30 1012 29.88 841 24.83 7.5 45.5 70 2.3 36.1
14:35 1011 29.85 841 24.83 8.2 46.8 65 2 35.6
14:40 1011 29.85 841 24.83 8.7 47.6 68 3.2 37.7
14:45 1011 29.85 841 24.83 8.7 47.6 62 1.7 35.1
14:50 1011 29.85 841 24.83 8 46.4 65 1.9 35.4
14:55 1011 29.85 841 24.83 8.6 47.6 61 1.6 34.8
15:00 1011 29.85 841 24.83 8.5 47.3 61 1.5 34.7
15:05 1011 29.85 841 24.83 8.6 47.6 58 1 33.8
15:10 1011 29.85 840 24.81 8.6 47.4 61 1.4 34.5
15:15 1011 29.85 840 24.81 9 48.2 55 0.6 33
15:20 1011 29.85 840 24.81 9.7 49.4 55 1.1 34.1
15:25 1011 29.85 840 24.81 9.2 48.5 53 0.2 32.3
15:30 1011 29.85 840 24.81 9.7 49.5 48 -0.7 30.8
15:35 1011 29.85 840 24.81 10.5 50.9 46 -0.7 30.8
15:40 1011 29.85 840 24.81 11 51.7 45 -0.4 31.3
15:45 1011 29.85 840 24.81 10.5 50.9 49 0.4 32.7
15:50 1011 29.85 840 24.81 10.4 50.7 46 -0.8 30.6
15:55 1011 29.85 840 24.81 10.7 51.2 42 -1.8 28.7
16:00 1011 29.85 840 24.81 11 51.9 42 -1.4 29.6
16:05 1011 29.85 840 24.81 11.7 53 43 -0.6 31
16:10 1011 29.85 840 24.81 11.6 52.9 41 -1.1 30.1
16:15 1011 29.85 840 24.81 12.1 53.7 41 -0.6 31
16:20 1011 29.85 840 24.81 11.9 53.4 42 -0.5 31.1
16:25 1011 29.85 840 24.81 11.3 52.3 41 -1.5 29.2
16:30 1011 29.85 840 24.81 12 53.5 39 -1.4 29.5
16:35 1011 29.85 840 24.81 12.1 53.8 37 -2.2 28.1
16:40 1011 29.85 840 24.81 12.2 54 40 -0.8 30.5
16:45 1011 29.85 840 24.81 11.7 53 45 0.2 32.4
16:50 1011 29.85 840 24.81 10.4 50.8 47 -0.3 31.4
16:55 1011 29.85 840 24.81 9.8 49.6 48 -0.5 31
17:00 1011 29.85 840 24.81 9.2 48.5 49 -1 30.2
17:05 1011 29.85 840 24.81 8.8 47.8 52 -0.6 30.9
17:10 1011 29.85 840 24.81 8.2 46.8 55 -0.2 31.6
17:15 1011 29.85 840 24.81 7.7 45.8 59 0.1 32.1
17:20 1011 29.85 840 24.81 7.2 44.9 61 0.2 32.3
17:25 1011 29.85 840 24.81 6.8 44.2 65 0.6 33.1
17:30 1011 29.85 840 24.81 6.9 44.4 61 -0 31.9
17:35 1011 29.85 840 24.81 7.4 45.3 62 0.6 33.2
17:40 1011 29.85 840 24.81 7.8 46.1 62 1.1 33.9
17:45 1011 29.85 840 24.81 7.8 46 63 1.2 34.2
17:50 1011 29.85 841 24.83 7.1 44.7 69 1.7 35.1
17:55 1011 29.85 841 24.83 6.5 43.6 67 0.8 33.5
18:00 1011 29.85 841 24.83 6.1 43.1 68 0.7 33.3
18:05 1011 29.85 841 24.83 6 42.8 69 0.8 33.4
18:10 1011 29.85 841 24.83 5.8 42.4 70 0.7 33.3
18:15 1011 29.85 841 24.83 5.6 42.1 72 0.9 33.7
18:20 1011 29.85 841 24.83 5.5 41.8 72 0.8 33.4
18:25 1011 29.85 840 24.81 5.6 42 72 1 33.8
18:30 1011 29.85 840 24.81 5.5 41.9 73 1 33.9
18:35 1011 29.85 840 24.81 5.4 41.8 73 1 33.8
18:40 1011 29.85 840 24.81 5.6 42 73 1.2 34.1
18:45 1011 29.85 841 24.83 5.7 42.3 71 0.9 33.6
18:50 1011 29.85 841 24.83 5.9 42.6 72 1.2 34.1
18:55 1011 29.85 841 24.83 5.8 42.4 71 0.9 33.6
19:00 1011 29.85 840 24.81 5.8 42.5 70 0.7 33.2
19:05 1011 29.85 840 24.81 6 42.8 69 0.7 33.3
19:10 1011 29.85 841 24.83 5.7 42.3 70 0.7 33.2
19:15 1011 29.85 841 24.83 5.6 42.1 69 0.4 32.7
19:20 1011 29.85 841 24.83 5.6 42.1 69 0.4 32.7
19:25 1011 29.85 841 24.83 5.7 42.2 69 0.5 32.8
19:30 1011 29.85 841 24.83 5.5 41.9 70 0.4 32.7
19:35 1011 29.85 841 24.83 5.3 41.5 71 0.4 32.7
19:40 1011 29.85 840 24.81 5 41 72 0.3 32.6
19:45 1011 29.85 841 24.83 4.8 40.7 74 0.5 33
19:50 1011 29.85 841 24.83 4.6 40.4 75 0.6 33
19:55 1012 29.88 841 24.83 4.4 40 75 0.3 32.6
20:00 1012 29.88 841 24.83 4.6 40.2 73 0.1 32.1
20:05 1012 29.88 841 24.83 4.8 40.7 71 0 32
20:10 1012 29.88 841 24.83 4.8 40.7 72 0.3 32.5
20:15 1012 29.88 841 24.83 4.9 40.8 73 0.4 32.7
20:20 1012 29.88 841 24.83 4.7 40.5 74 0.5 32.9
20:25 1012 29.88 841 24.83 4.6 40.3 75 0.5 32.8
20:30 1012 29.88 841 24.83 4.6 40.2 73 0.2 32.4
20:35 1012 29.88 841 24.83 4.7 40.4 73 0.3 32.6
20:40 1012 29.88 841 24.83 4.5 40.1 75 0.5 32.8
20:45 1012 29.88 841 24.83 4.3 39.7 75 0.2 32.4
20:50 1012 29.88 841 24.83 4.2 39.5 74 0 32
20:55 1012 29.88 841 24.83 4.1 39.4 74 -0.1 31.8
21:00 1012 29.88 841 24.83 4.1 39.4 75 0.1 32.2
21:05 1012 29.88 841 24.83 4 39.3 76 0.2 32.4
21:10 1012 29.88 841 24.83 3.9 39 77 0.2 32.4
21:15 1012 29.88 841 24.83 3.7 38.7 77 0.2 32.3
21:20 1012 29.88 841 24.83 3.6 38.6 78 0.1 32.2
21:25 1012 29.88 841 24.83 3.5 38.4 78 -0 32
21:30 1012 29.88 841 24.83 3.5 38.3 78 -0 31.9
21:35 1012 29.88 841 24.83 3.4 38.2 77 -0.1 31.7
21:40 1012 29.88 841 24.83 3.5 38.3 77 -0.2 31.7
21:45 1012 29.88 841 24.83 3.5 38.2 77 -0.1 31.8
21:50 1012 29.88 841 24.83 3.4 38.2 78 -0.1 31.9
21:55 1012 29.88 841 24.83 3.4 38.1 78 -0 32
22:00 1012 29.88 841 24.83 3.4 38 78 -0.1 31.9
22:05 1012 29.88 841 24.83 3.3 37.9 78 -0.1 31.8
22:10 1012 29.88 841 24.83 3.3 37.9 78 -0.2 31.7
22:15 1012 29.88 841 24.83 3.2 37.7 78 -0.2 31.6
22:20 1012 29.88 841 24.83 3.2 37.8 79 -0.1 31.8
22:25 1012 29.88 841 24.83 3.2 37.8 79 -0 31.9
22:30 1012 29.88 841 24.83 3.3 38 79 0 32
22:35 1012 29.88 841 24.83 3.4 38.2 78 0 32.1
22:40 1012 29.88 841 24.83 3.6 38.5 77 0 32
22:45 1012 29.88 841 24.83 3.6 38.4 78 0 32.1
22:50 1012 29.88 841 24.83 3.6 38.4 78 0.1 32.1
22:55 1012 29.88 841 24.83 3.5 38.3 79 0.2 32.3
23:00 1012 29.88 841 24.83 3.5 38.3 78 -0 32
23:05 1012 29.88 841 24.83 3.6 38.5 78 0.2 32.4
23:10 1012 29.88 841 24.83 3.6 38.5 79 0.3 32.6
23:15 1012 29.88 841 24.83 3.6 38.5 79 0.3 32.5
23:20 1012 29.88 841 24.83 3.6 38.5 79 0.3 32.5
23:25 1012 29.88 841 24.83 3.6 38.4 79 0.3 32.5
23:30 1012 29.88 841 24.83 3.4 38.1 80 0.3 32.5
23:35 1012 29.88 841 24.83 3.4 38 81 0.3 32.6
23:40 1012 29.88 841 24.83 3.4 38 81 0.4 32.7
23:45 1012 29.88 841 24.83 3.3 38 81 0.3 32.5
23:50 1012 29.88 841 24.83 3.3 37.9 80 0.1 32.2
23:55 1012 29.88 841 24.83 3.3 37.9 80 0.2 32.3
24:00 1012 29.88 841 24.83 3.3 37.9 80 0.2 32.4